createdAt,value
2024-03-08T00:00:15.960Z,24.33
2024-03-08T00:01:14.354Z,24.36
2024-03-08T00:02:14.464Z,24.36
2024-03-08T00:03:14.448Z,24.36
2024-03-08T00:04:14.361Z,24.35
2024-03-08T00:05:14.323Z,24.35
2024-03-08T00:06:14.410Z,24.31
2024-03-08T00:07:14.318Z,24.33
2024-03-08T00:08:14.332Z,24.35
2024-03-08T00:09:14.354Z,24.33
2024-03-08T00:10:15.604Z,24.33
2024-03-08T00:11:14.340Z,24.33
2024-03-08T00:12:14.408Z,24.31
2024-03-08T00:13:14.325Z,24.33
2024-03-08T00:14:14.327Z,24.35
2024-03-08T00:15:14.363Z,24.35
2024-03-08T00:16:14.310Z,24.33
2024-03-08T00:17:14.296Z,24.35
2024-03-08T00:18:14.360Z,24.32
2024-03-08T00:19:14.298Z,24.33
2024-03-08T00:20:14.475Z,24.32
2024-03-08T00:21:14.290Z,24.33
2024-03-08T00:22:14.310Z,24.32
2024-03-08T00:23:14.272Z,24.31
2024-03-08T00:24:14.300Z,24.33
2024-03-08T00:25:14.298Z,24.31
2024-03-08T00:26:14.264Z,24.33
2024-03-08T00:27:14.321Z,24.32
2024-03-08T00:28:14.260Z,24.33
2024-03-08T00:29:14.253Z,24.31
2024-03-08T00:30:14.462Z,24.32
2024-03-08T00:31:14.257Z,24.31
2024-03-08T00:32:14.249Z,24.32
2024-03-08T00:33:14.318Z,24.31
2024-03-08T00:34:14.266Z,24.29
2024-03-08T00:35:14.300Z,24.32
2024-03-08T00:36:14.282Z,24.31
2024-03-08T00:37:14.273Z,24.29
2024-03-08T00:38:14.280Z,24.29
2024-03-08T00:39:14.299Z,24.29
2024-03-08T00:40:14.258Z,24.29
2024-03-08T00:41:14.287Z,24.29
2024-03-08T00:42:14.332Z,24.31
2024-03-08T00:43:14.322Z,24.31
2024-03-08T00:44:14.350Z,24.29
2024-03-08T00:45:14.499Z,24.32
2024-03-08T00:46:14.383Z,24.28
2024-03-08T00:47:14.426Z,24.29
2024-03-08T00:48:14.545Z,24.29
2024-03-08T00:49:14.430Z,24.33
2024-03-08T00:50:14.410Z,24.29
2024-03-08T00:51:14.416Z,24.31
2024-03-08T00:52:14.390Z,24.31
2024-03-08T00:53:14.368Z,24.31
2024-03-08T00:54:14.429Z,24.32
2024-03-08T00:55:14.366Z,24.29
2024-03-08T00:56:14.362Z,24.28
2024-03-08T00:57:14.413Z,24.26
2024-03-08T00:58:14.348Z,24.29
2024-03-08T00:59:14.338Z,24.28
2024-03-08T01:00:14.435Z,24.26
2024-03-08T01:01:14.360Z,24.28
2024-03-08T01:02:14.320Z,24.28
2024-03-08T01:03:14.374Z,24.31
2024-03-08T01:04:14.289Z,24.31
2024-03-08T01:05:14.319Z,24.29
2024-03-08T01:06:14.297Z,24.26
2024-03-08T01:07:14.265Z,24.31
2024-03-08T01:08:14.255Z,24.31
2024-03-08T01:09:14.304Z,24.31
2024-03-08T01:10:14.272Z,24.29
2024-03-08T01:11:14.282Z,24.28
2024-03-08T01:12:14.253Z,24.28
2024-03-08T01:13:14.191Z,24.29
2024-03-08T01:14:14.192Z,24.29
2024-03-08T01:15:14.265Z,24.31
2024-03-08T01:16:16.901Z,24.26
2024-03-08T01:17:14.267Z,24.25
2024-03-08T01:18:14.303Z,24.31
2024-03-08T01:19:14.236Z,24.29
2024-03-08T01:20:14.213Z,24.28
2024-03-08T01:21:14.238Z,24.29
2024-03-08T01:22:14.218Z,24.29
2024-03-08T01:23:14.207Z,24.28
2024-03-08T01:24:14.236Z,24.26
2024-03-08T01:25:14.187Z,24.26
2024-03-08T01:26:14.194Z,24.26
2024-03-08T01:27:14.270Z,24.26
2024-03-08T01:28:14.162Z,24.26
2024-03-08T01:29:14.156Z,24.26
2024-03-08T01:30:14.229Z,24.28
2024-03-08T01:31:14.155Z,24.26
2024-03-08T01:32:14.134Z,24.26
2024-03-08T01:33:14.211Z,24.26
2024-03-08T01:34:14.158Z,24.28
2024-03-08T01:35:14.127Z,24.26
2024-03-08T01:36:14.155Z,24.28
2024-03-08T01:37:14.120Z,24.26
2024-03-08T01:38:14.110Z,24.26
2024-03-08T01:39:14.318Z,24.26
2024-03-08T01:40:14.105Z,24.26
2024-03-08T01:41:14.118Z,24.28
2024-03-08T01:42:14.204Z,24.26
2024-03-08T01:43:14.099Z,24.25
2024-03-08T01:44:14.099Z,24.25
2024-03-08T01:45:14.151Z,24.23
2024-03-08T01:46:14.097Z,24.25
2024-03-08T01:47:14.089Z,24.23
2024-03-08T01:48:14.145Z,24.25
2024-03-08T01:49:14.085Z,24.25
2024-03-08T01:50:14.083Z,24.23
2024-03-08T01:51:14.165Z,24.23
2024-03-08T01:52:14.070Z,24.25
2024-03-08T01:53:14.080Z,24.23
2024-03-08T01:54:14.093Z,24.23
2024-03-08T01:55:14.067Z,24.26
2024-03-08T01:56:14.067Z,24.23
2024-03-08T01:57:14.171Z,24.25
2024-03-08T01:58:14.079Z,24.26
2024-03-08T01:59:14.058Z,24.23
2024-03-08T02:00:14.216Z,24.23
2024-03-08T02:01:14.075Z,24.25
2024-03-08T02:02:14.039Z,24.25
2024-03-08T02:03:14.087Z,24.25
2024-03-08T02:04:14.028Z,24.23
2024-03-08T02:05:14.031Z,24.23
2024-03-08T02:06:14.080Z,24.22
2024-03-08T02:07:14.032Z,24.23
2024-03-08T02:08:14.017Z,24.22
2024-03-08T02:09:14.117Z,24.23
2024-03-08T02:10:14.083Z,24.22
2024-03-08T02:11:14.079Z,24.23
2024-03-08T02:12:14.004Z,24.23
2024-03-08T02:13:14.018Z,24.23
2024-03-08T02:14:14.016Z,24.25
2024-03-08T02:15:14.040Z,24.22
2024-03-08T02:16:13.989Z,24.21
2024-03-08T02:17:13.988Z,24.25
2024-03-08T02:18:14.010Z,24.23
2024-03-08T02:19:13.979Z,24.22
2024-03-08T02:20:13.965Z,24.22
2024-03-08T02:21:14.010Z,24.21
2024-03-08T02:22:13.963Z,24.23
2024-03-08T02:23:13.995Z,24.21
2024-03-08T02:24:14.032Z,24.22
2024-03-08T02:25:14.038Z,24.22
2024-03-08T02:26:14.043Z,24.22
2024-03-08T02:27:14.239Z,24.21
2024-03-08T02:28:14.072Z,24.22
2024-03-08T02:29:14.093Z,24.22
2024-03-08T02:30:14.279Z,24.22
2024-03-08T02:31:14.174Z,24.21
2024-03-08T02:32:14.149Z,24.22
2024-03-08T02:33:14.261Z,24.21
2024-03-08T02:34:14.177Z,24.23
2024-03-08T02:35:14.202Z,24.22
2024-03-08T02:36:14.274Z,24.22
2024-03-08T02:37:14.233Z,24.21
2024-03-08T02:38:14.246Z,24.21
2024-03-08T02:39:14.299Z,24.22
2024-03-08T02:40:14.296Z,24.23
2024-03-08T02:41:14.311Z,24.19
2024-03-08T02:42:14.351Z,24.19
2024-03-08T02:43:14.342Z,24.21
2024-03-08T02:44:14.364Z,24.21
2024-03-08T02:45:14.463Z,24.19
2024-03-08T02:46:14.434Z,24.18
2024-03-08T02:47:14.440Z,24.21
2024-03-08T02:48:14.595Z,24.19
2024-03-08T02:49:14.488Z,24.18
2024-03-08T02:50:14.503Z,24.18
2024-03-08T02:51:14.631Z,24.19
2024-03-08T02:52:14.551Z,24.19
2024-03-08T02:53:14.603Z,24.18
2024-03-08T02:54:14.616Z,24.18
2024-03-08T02:55:14.614Z,24.18
2024-03-08T02:56:14.627Z,24.21
2024-03-08T02:57:14.673Z,24.18
2024-03-08T02:58:14.679Z,24.21
2024-03-08T02:59:14.698Z,24.19
2024-03-08T03:00:14.754Z,24.21
2024-03-08T03:01:14.760Z,24.18
2024-03-08T03:02:14.775Z,24.18
2024-03-08T03:03:14.871Z,24.21
2024-03-08T03:04:14.813Z,24.18
2024-03-08T03:05:14.842Z,24.16
2024-03-08T03:06:14.867Z,24.19
2024-03-08T03:07:14.883Z,24.18
2024-03-08T03:08:14.900Z,24.19
2024-03-08T03:09:14.976Z,24.18
2024-03-08T03:10:14.950Z,24.18
2024-03-08T03:11:15.054Z,24.19
2024-03-08T03:12:15.092Z,24.18
2024-03-08T03:13:15.038Z,24.18
2024-03-08T03:14:15.057Z,24.18
2024-03-08T03:16:15.096Z,24.19
2024-03-08T03:17:15.125Z,24.18
2024-03-08T03:18:15.262Z,24.19
2024-03-08T03:19:15.182Z,24.16
2024-03-08T03:20:15.191Z,24.16
2024-03-08T03:21:15.235Z,24.16
2024-03-08T03:22:15.239Z,24.19
2024-03-08T03:23:16.034Z,24.16
2024-03-08T03:24:15.305Z,24.15
2024-03-08T03:25:15.339Z,24.21
2024-03-08T03:26:15.337Z,24.16
2024-03-08T03:27:15.411Z,24.18
2024-03-08T03:28:15.375Z,24.15
2024-03-08T03:29:15.395Z,24.19
2024-03-08T03:30:15.471Z,24.19
2024-03-08T03:31:15.585Z,24.19
2024-03-08T03:32:15.461Z,24.16
2024-03-08T03:33:15.531Z,24.15
2024-03-08T03:34:15.535Z,24.18
2024-03-08T03:35:15.541Z,24.16
2024-03-08T03:36:15.615Z,24.18
2024-03-08T03:37:15.553Z,24.15
2024-03-08T03:38:15.889Z,24.18
2024-03-08T03:39:15.602Z,24.19
2024-03-08T03:40:15.583Z,24.15
2024-03-08T03:41:15.653Z,24.15
2024-03-08T03:42:15.606Z,24.15
2024-03-08T03:43:15.552Z,24.18
2024-03-08T03:44:15.549Z,24.16
2024-03-08T03:45:15.617Z,24.15
2024-03-08T03:46:15.528Z,24.16
2024-03-08T03:47:15.523Z,24.18
2024-03-08T03:48:15.601Z,24.14
2024-03-08T03:49:15.500Z,24.15
2024-03-08T03:50:15.510Z,24.15
2024-03-08T03:51:15.565Z,24.15
2024-03-08T03:52:15.475Z,24.18
2024-03-08T03:53:15.475Z,24.15
2024-03-08T03:54:15.578Z,24.15
2024-03-08T03:55:15.474Z,24.16
2024-03-08T03:56:15.470Z,24.16
2024-03-08T03:57:15.514Z,24.16
2024-03-08T03:58:15.469Z,24.16
2024-03-08T03:59:15.450Z,24.16
2024-03-08T04:00:15.491Z,24.16
2024-03-08T04:01:15.475Z,24.18
2024-03-08T04:02:15.424Z,24.16
2024-03-08T04:03:15.454Z,24.15
2024-03-08T04:04:15.427Z,24.16
2024-03-08T04:05:15.399Z,24.16
2024-03-08T04:06:15.542Z,24.16
2024-03-08T04:07:15.395Z,24.18
2024-03-08T04:08:15.401Z,24.14
2024-03-08T04:09:15.457Z,24.16
2024-03-08T04:10:15.470Z,24.14
2024-03-08T04:11:15.508Z,24.15
2024-03-08T04:12:15.561Z,24.16
2024-03-08T04:13:15.546Z,24.16
2024-03-08T04:14:15.554Z,24.15
2024-03-08T04:15:15.613Z,24.16
2024-03-08T04:16:15.615Z,24.15
2024-03-08T04:17:15.625Z,24.16
2024-03-08T04:18:15.721Z,24.15
2024-03-08T04:19:15.687Z,24.15
2024-03-08T04:20:16.102Z,24.18
2024-03-08T04:21:15.807Z,24.16
2024-03-08T04:22:15.783Z,24.14
2024-03-08T04:23:15.806Z,24.16
2024-03-08T04:24:15.899Z,24.15
2024-03-08T04:25:23.081Z,24.12
2024-03-08T04:26:23.106Z,24.16
2024-03-08T04:27:23.081Z,24.12
2024-03-08T04:28:23.086Z,24.14
2024-03-08T04:29:23.127Z,24.16
2024-03-08T04:30:23.179Z,24.15
2024-03-08T04:31:30.385Z,24.14
2024-03-08T04:32:30.471Z,24.12
2024-03-08T04:33:30.456Z,24.12
2024-03-08T04:34:30.381Z,24.14
2024-03-08T04:35:30.443Z,24.14
2024-03-08T04:36:30.388Z,24.15
2024-03-08T04:37:30.436Z,24.14
2024-03-08T04:38:30.409Z,24.14
2024-03-08T04:39:30.380Z,24.12
2024-03-08T04:40:30.356Z,24.15
2024-03-08T04:41:30.392Z,24.14
2024-03-08T04:42:30.376Z,24.14
2024-03-08T04:43:30.383Z,24.12
2024-03-08T04:44:30.402Z,24.14
2024-03-08T04:45:30.392Z,24.12
2024-03-08T04:46:30.406Z,24.14
2024-03-08T04:47:30.504Z,24.11
2024-03-08T04:48:30.571Z,24.12
2024-03-08T04:49:30.440Z,24.11
2024-03-08T04:50:30.655Z,24.12
2024-03-08T04:51:30.430Z,24.14
2024-03-08T04:52:30.434Z,24.11
2024-03-08T04:53:30.497Z,24.14
2024-03-08T04:54:30.450Z,24.12
2024-03-08T04:55:30.435Z,24.11
2024-03-08T04:56:30.448Z,24.12
2024-03-08T04:57:30.433Z,24.14
2024-03-08T04:58:30.418Z,24.12
2024-03-08T04:59:30.434Z,24.14
2024-03-08T05:00:30.489Z,24.12
2024-03-08T05:01:30.434Z,24.12
2024-03-08T05:02:30.435Z,24.12
2024-03-08T05:03:30.401Z,24.11
2024-03-08T05:04:30.396Z,24.12
2024-03-08T05:05:30.415Z,24.12
2024-03-08T05:06:30.395Z,24.12
2024-03-08T05:07:30.387Z,24.12
2024-03-08T05:08:30.441Z,24.14
2024-03-08T05:09:30.451Z,24.14
2024-03-08T05:10:30.363Z,24.12
2024-03-08T05:11:30.428Z,24.14
2024-03-08T05:12:30.369Z,24.12
2024-03-08T05:13:30.361Z,24.12
2024-03-08T05:14:30.383Z,24.12
2024-03-08T05:15:30.376Z,24.12
2024-03-08T05:16:30.378Z,24.11
2024-03-08T05:17:30.447Z,24.12
2024-03-08T05:18:30.496Z,24.11
2024-03-08T05:19:31.678Z,24.15
2024-03-08T05:20:30.413Z,24.15
2024-03-08T05:21:30.387Z,24.12
2024-03-08T05:22:30.404Z,24.14
2024-03-08T05:23:30.539Z,24.11
2024-03-08T05:24:30.409Z,24.12
2024-03-08T05:25:30.414Z,24.11
2024-03-08T05:26:30.455Z,24.12
2024-03-08T05:27:30.421Z,24.14
2024-03-08T05:28:30.407Z,24.12
2024-03-08T05:30:30.401Z,24.11
2024-03-08T05:31:30.383Z,24.14
2024-03-08T05:32:31.971Z,24.12
2024-03-08T05:33:30.471Z,24.14
2024-03-08T05:34:30.393Z,24.12
2024-03-08T05:35:30.411Z,24.14
2024-03-08T05:36:30.400Z,24.14
2024-03-08T05:37:30.418Z,24.12
2024-03-08T05:38:30.420Z,24.14
2024-03-08T05:39:30.404Z,24.11
2024-03-08T05:40:30.433Z,24.14
2024-03-08T05:41:30.461Z,24.12
2024-03-08T05:42:30.447Z,24.12
2024-03-08T05:43:30.460Z,24.14
2024-03-08T05:44:30.489Z,24.12
2024-03-08T05:45:30.463Z,24.12
2024-03-08T05:46:30.469Z,24.12
2024-03-08T05:47:31.822Z,24.12
2024-03-08T05:48:30.519Z,24.14
2024-03-08T05:49:30.458Z,24.11
2024-03-08T05:50:30.455Z,24.09
2024-03-08T05:51:30.459Z,24.12
2024-03-08T05:52:30.495Z,24.12
2024-03-08T05:53:30.532Z,24.11
2024-03-08T05:54:30.525Z,24.11
2024-03-08T05:55:30.495Z,24.12
2024-03-08T05:56:30.508Z,24.11
2024-03-08T05:57:30.504Z,24.14
2024-03-08T05:58:30.507Z,24.14
2024-03-08T05:59:30.543Z,24.15
2024-03-08T06:00:30.521Z,24.12
2024-03-08T06:01:30.523Z,24.14
2024-03-08T06:02:30.536Z,24.15
2024-03-08T06:03:30.526Z,24.12
2024-03-08T06:04:30.552Z,24.14
2024-03-08T06:05:30.559Z,24.14
2024-03-08T06:06:30.551Z,24.12
2024-03-08T06:07:30.570Z,24.14
2024-03-08T06:08:30.600Z,24.14
2024-03-08T06:09:30.624Z,24.11
2024-03-08T06:10:30.616Z,24.12
2024-03-08T06:11:30.681Z,24.14
2024-03-08T06:12:30.665Z,24.11
2024-03-08T06:13:30.894Z,24.16
2024-03-08T06:14:30.704Z,24.14
2024-03-08T06:15:30.640Z,24.14
2024-03-08T06:16:30.646Z,24.15
2024-03-08T06:17:30.716Z,24.16
2024-03-08T06:18:30.718Z,24.18
2024-03-08T06:19:30.667Z,24.16
2024-03-08T06:20:30.721Z,24.16
2024-03-08T06:21:30.686Z,24.18
2024-03-08T06:22:30.677Z,24.19
2024-03-08T06:23:30.688Z,24.19
2024-03-08T06:24:30.677Z,24.18
2024-03-08T06:25:30.706Z,24.19
2024-03-08T06:26:31.451Z,24.22
2024-03-08T06:27:30.711Z,24.19
2024-03-08T06:28:30.708Z,24.22
2024-03-08T06:29:30.716Z,24.19
2024-03-08T06:30:30.704Z,24.25
2024-03-08T06:31:30.670Z,24.22
2024-03-08T06:32:30.726Z,24.18
2024-03-08T06:33:30.811Z,24.25
2024-03-08T06:34:30.659Z,24.25
2024-03-08T06:35:30.656Z,24.26
2024-03-08T06:36:30.631Z,24.29
2024-03-08T06:37:30.623Z,24.31
2024-03-08T06:38:30.667Z,24.29
2024-03-08T06:39:30.601Z,24.33
2024-03-08T06:40:30.613Z,24.33
2024-03-08T06:41:30.621Z,24.36
2024-03-08T06:42:30.584Z,24.36
2024-03-08T06:43:30.591Z,24.36
2024-03-08T06:44:30.671Z,24.39
2024-03-08T06:45:30.621Z,24.40
2024-03-08T06:46:30.647Z,24.42
2024-03-08T06:47:30.788Z,24.40
2024-03-08T06:48:30.891Z,24.44
2024-03-08T06:49:30.790Z,24.46
2024-03-08T06:50:30.842Z,24.46
2024-03-08T06:51:30.779Z,24.46
2024-03-08T06:52:30.897Z,24.50
2024-03-08T06:53:30.841Z,24.52
2024-03-08T06:54:30.786Z,24.49
2024-03-08T06:55:30.809Z,24.48
2024-03-08T06:56:30.824Z,24.44
2024-03-08T06:57:30.811Z,24.48
2024-03-08T06:58:30.796Z,24.48
2024-03-08T06:59:30.836Z,24.50
2024-03-08T07:00:30.887Z,24.50
2024-03-08T07:01:30.883Z,24.50
2024-03-08T07:02:30.894Z,24.55
2024-03-08T07:03:30.930Z,24.55
2024-03-08T07:04:30.829Z,24.58
2024-03-08T07:05:32.142Z,24.56
2024-03-08T07:06:30.853Z,24.55
2024-03-08T07:07:30.917Z,24.60
2024-03-08T07:08:30.977Z,24.66
2024-03-08T07:09:30.954Z,24.67
2024-03-08T07:10:30.930Z,24.71
2024-03-08T07:11:31.008Z,24.73
2024-03-08T07:12:30.930Z,24.76
2024-03-08T07:13:31.002Z,24.77
2024-03-08T07:14:30.937Z,24.84
2024-03-08T07:15:30.885Z,24.84
2024-03-08T07:16:30.889Z,24.87
2024-03-08T07:17:31.065Z,24.88
2024-03-08T07:18:32.238Z,24.93
2024-03-08T07:19:31.044Z,24.94
2024-03-08T07:20:31.036Z,24.97
2024-03-08T07:21:31.004Z,24.98
2024-03-08T07:22:30.990Z,24.99
2024-03-08T07:23:31.035Z,25.01
2024-03-08T07:24:31.009Z,25.03
2024-03-08T07:25:30.957Z,25.05
2024-03-08T07:26:31.055Z,25.05
2024-03-08T07:27:31.028Z,25.07
2024-03-08T07:28:30.958Z,25.05
2024-03-08T07:29:30.989Z,25.04
2024-03-08T07:30:30.969Z,25.05
2024-03-08T07:31:30.940Z,25.05
2024-03-08T07:32:31.050Z,25.05
2024-03-08T07:33:31.015Z,25.04
2024-03-08T07:34:30.915Z,25.05
2024-03-08T07:35:30.978Z,25.05
2024-03-08T07:36:30.917Z,25.08
2024-03-08T07:37:30.876Z,25.04
2024-03-08T07:38:30.914Z,25.07
2024-03-08T07:39:30.914Z,25.10
2024-03-08T07:40:30.927Z,25.05
2024-03-08T07:41:30.972Z,25.07
2024-03-08T07:42:30.984Z,25.08
2024-03-08T07:43:31.023Z,25.05
2024-03-08T07:44:31.075Z,25.05
2024-03-08T07:45:31.068Z,25.08
2024-03-08T07:46:32.484Z,25.10
2024-03-08T07:47:31.209Z,25.11
2024-03-08T07:48:31.272Z,25.10
2024-03-08T07:49:31.251Z,25.08
2024-03-08T07:50:31.308Z,25.04
2024-03-08T07:51:31.260Z,24.99
2024-03-08T07:52:31.314Z,24.93
2024-03-08T07:53:31.419Z,24.87
2024-03-08T07:54:31.464Z,24.78
2024-03-08T07:55:31.471Z,24.71
2024-03-08T07:56:31.529Z,24.66
2024-03-08T07:57:31.512Z,24.60
2024-03-08T07:58:32.959Z,24.56
2024-03-08T07:59:31.549Z,24.56
2024-03-08T08:00:31.548Z,24.53
2024-03-08T08:01:31.608Z,24.50
2024-03-08T08:02:32.877Z,24.48
2024-03-08T08:03:31.659Z,24.48
2024-03-08T08:04:31.713Z,24.53
2024-03-08T08:05:31.662Z,24.55
2024-03-08T08:06:31.631Z,24.55
2024-03-08T08:07:31.648Z,24.52
2024-03-08T08:08:31.625Z,24.58
2024-03-08T08:09:31.637Z,24.59
2024-03-08T08:10:31.635Z,24.63
2024-03-08T08:11:31.721Z,24.66
2024-03-08T08:12:31.621Z,24.67
2024-03-08T08:13:31.684Z,24.70
2024-03-08T08:14:31.628Z,24.69
2024-03-08T08:15:31.643Z,24.70
2024-03-08T08:16:31.598Z,24.71
2024-03-08T08:17:31.599Z,24.73
2024-03-08T08:18:31.589Z,24.77
2024-03-08T08:19:31.575Z,24.80
2024-03-08T08:20:31.571Z,24.81
2024-03-08T08:21:31.564Z,24.83
2024-03-08T08:22:31.587Z,24.84
2024-03-08T08:23:31.531Z,24.84
2024-03-08T08:24:31.531Z,24.87
2024-03-08T08:25:31.582Z,24.86
2024-03-08T08:26:33.186Z,24.90
2024-03-08T08:27:31.505Z,24.90
2024-03-08T08:28:31.525Z,24.93
2024-03-08T08:29:31.493Z,24.93
2024-03-08T08:30:31.478Z,24.95
2024-03-08T08:31:31.503Z,24.94
2024-03-08T08:32:31.493Z,24.94
2024-03-08T08:33:31.463Z,24.93
2024-03-08T08:34:31.468Z,24.94
2024-03-08T08:35:31.678Z,24.97
2024-03-08T08:36:31.463Z,24.95
2024-03-08T08:37:31.509Z,24.97
2024-03-08T08:38:31.433Z,24.99
2024-03-08T08:39:31.428Z,25.03
2024-03-08T08:40:31.488Z,25.03
2024-03-08T08:41:31.418Z,25.07
2024-03-08T08:42:31.405Z,25.07
2024-03-08T08:43:31.437Z,25.11
2024-03-08T08:44:31.453Z,25.10
2024-03-08T08:45:31.431Z,25.11
2024-03-08T08:46:31.395Z,25.13
2024-03-08T08:47:31.479Z,25.17
2024-03-08T08:48:31.374Z,25.18
2024-03-08T08:49:31.375Z,25.19
2024-03-08T08:50:31.330Z,25.22
2024-03-08T08:51:31.428Z,25.24
2024-03-08T08:52:31.346Z,25.25
2024-03-08T08:53:31.340Z,25.25
2024-03-08T08:54:31.330Z,25.28
2024-03-08T08:55:31.400Z,25.28
2024-03-08T08:56:31.280Z,25.31
2024-03-08T08:57:31.289Z,25.29
2024-03-08T08:58:31.292Z,25.32
2024-03-08T08:59:31.244Z,25.32
2024-03-08T09:00:31.253Z,25.33
2024-03-08T09:01:31.275Z,25.35
2024-03-08T09:02:31.406Z,25.38
2024-03-08T09:03:31.231Z,25.35
2024-03-08T09:04:31.289Z,25.35
2024-03-08T09:05:31.214Z,25.41
2024-03-08T09:06:31.198Z,25.41
2024-03-08T09:07:31.401Z,25.38
2024-03-08T09:08:33.638Z,25.42
2024-03-08T09:09:31.204Z,25.42
2024-03-08T09:10:31.812Z,25.43
2024-03-08T09:11:31.301Z,25.43
2024-03-08T09:12:31.164Z,25.46
2024-03-08T09:13:33.252Z,25.45
2024-03-08T09:14:31.154Z,25.45
2024-03-08T09:15:31.150Z,25.45
2024-03-08T09:16:31.238Z,25.46
2024-03-08T09:17:31.224Z,25.49
2024-03-08T09:18:31.118Z,25.52
2024-03-08T09:19:31.183Z,25.52
2024-03-08T09:20:31.120Z,25.56
2024-03-08T09:21:31.103Z,25.54
2024-03-08T09:22:31.170Z,25.56
2024-03-08T09:23:31.144Z,25.60
2024-03-08T09:24:31.094Z,25.60
2024-03-08T09:25:31.130Z,25.62
2024-03-08T09:26:31.211Z,25.63
2024-03-08T09:27:31.077Z,25.66
2024-03-08T09:28:31.146Z,25.68
2024-03-08T09:29:31.101Z,25.69
2024-03-08T09:30:31.114Z,25.69
2024-03-08T09:31:31.100Z,25.72
2024-03-08T09:32:31.077Z,25.73
2024-03-08T09:33:32.221Z,25.73
2024-03-08T09:34:37.271Z,25.73
2024-03-08T09:35:32.091Z,25.73
2024-03-08T09:36:31.049Z,25.73
2024-03-08T09:37:31.056Z,25.70
2024-03-08T09:38:31.021Z,25.70
2024-03-08T09:39:32.052Z,25.69
2024-03-08T09:40:31.005Z,25.69
2024-03-08T09:41:31.075Z,25.68
2024-03-08T09:42:31.026Z,25.66
2024-03-08T09:43:31.129Z,25.66
2024-03-08T09:44:31.032Z,25.66
2024-03-08T09:45:31.004Z,25.63
2024-03-08T09:46:31.026Z,25.65
2024-03-08T09:47:31.037Z,25.65
2024-03-08T09:48:31.018Z,25.65
2024-03-08T09:49:31.085Z,25.63
2024-03-08T09:50:30.993Z,25.65
2024-03-08T09:51:30.974Z,25.63
2024-03-08T09:52:31.002Z,25.66
2024-03-08T09:53:30.948Z,25.62
2024-03-08T09:54:30.947Z,25.62
2024-03-08T09:55:30.943Z,25.60
2024-03-08T09:56:30.975Z,25.59
2024-03-08T09:57:31.069Z,25.63
2024-03-08T09:58:30.994Z,25.60
2024-03-08T09:59:30.961Z,25.59
2024-03-08T10:00:31.075Z,25.58
2024-03-08T10:01:31.092Z,25.60
2024-03-08T10:02:31.133Z,25.59
2024-03-08T10:03:30.961Z,25.59
2024-03-08T10:04:31.004Z,25.56
2024-03-08T10:05:30.946Z,25.54
2024-03-08T10:06:30.979Z,25.52
2024-03-08T10:07:31.014Z,25.53
2024-03-08T10:08:31.000Z,25.50
2024-03-08T10:09:30.935Z,25.49
2024-03-08T10:10:30.952Z,25.48
2024-03-08T10:11:30.977Z,25.46
2024-03-08T10:12:30.889Z,25.43
2024-03-08T10:13:30.931Z,25.41
2024-03-08T10:14:30.862Z,25.39
2024-03-08T10:15:30.851Z,25.41
2024-03-08T10:16:30.850Z,25.38
2024-03-08T10:17:30.810Z,25.36
2024-03-08T10:18:30.790Z,25.35
2024-03-08T10:19:30.804Z,25.36
2024-03-08T10:20:30.753Z,25.33
2024-03-08T10:21:30.726Z,25.33
2024-03-08T10:22:30.768Z,25.35
2024-03-08T10:23:30.748Z,25.32
2024-03-08T10:24:30.693Z,25.32
2024-03-08T10:25:30.682Z,25.33
2024-03-08T10:26:30.649Z,25.32
2024-03-08T10:27:30.631Z,25.31
2024-03-08T10:28:30.632Z,25.29
2024-03-08T10:29:30.621Z,25.29
2024-03-08T10:30:30.571Z,25.29
2024-03-08T10:31:30.564Z,25.29
2024-03-08T10:32:30.536Z,25.28
2024-03-08T10:33:30.536Z,25.28
2024-03-08T10:34:30.555Z,25.26
2024-03-08T10:35:30.587Z,25.26
2024-03-08T10:36:30.605Z,25.26
2024-03-08T10:37:30.691Z,25.25
2024-03-08T10:38:30.690Z,25.26
2024-03-08T10:39:30.701Z,25.28
2024-03-08T10:40:30.796Z,25.26
2024-03-08T10:41:30.766Z,25.26
2024-03-08T10:42:30.801Z,25.26
2024-03-08T10:43:30.887Z,25.26
2024-03-08T10:44:30.865Z,25.28
2024-03-08T10:45:31.038Z,25.28
2024-03-08T10:46:30.931Z,25.26
2024-03-08T10:47:30.924Z,25.26
2024-03-08T10:48:31.215Z,25.25
2024-03-08T10:49:30.909Z,25.25
2024-03-08T10:50:30.842Z,25.26
2024-03-08T10:51:30.845Z,25.25
2024-03-08T10:52:30.835Z,25.26
2024-03-08T10:53:30.833Z,25.25
2024-03-08T10:54:30.820Z,25.25
2024-03-08T10:55:30.857Z,25.26
2024-03-08T10:56:30.802Z,25.26
2024-03-08T10:57:30.789Z,25.28
2024-03-08T10:58:30.838Z,25.26
2024-03-08T10:59:30.801Z,25.29
2024-03-08T11:00:30.770Z,25.29
2024-03-08T11:01:30.862Z,25.26
2024-03-08T11:02:30.855Z,25.29
2024-03-08T11:03:30.725Z,25.31
2024-03-08T11:04:30.791Z,25.29
2024-03-08T11:05:30.693Z,25.28
2024-03-08T11:06:30.686Z,25.31
2024-03-08T11:07:30.699Z,25.28
2024-03-08T11:08:30.654Z,25.33
2024-03-08T11:09:30.800Z,25.29
2024-03-08T11:10:30.710Z,25.32
2024-03-08T11:11:34.042Z,25.32
2024-03-08T11:12:31.145Z,25.31
2024-03-08T11:13:30.693Z,25.31
2024-03-08T11:14:30.653Z,25.29
2024-03-08T11:15:30.648Z,25.32
2024-03-08T11:16:30.635Z,25.31
2024-03-08T11:17:30.636Z,25.33
2024-03-08T11:18:30.592Z,25.33
2024-03-08T11:19:30.652Z,25.31
2024-03-08T11:20:30.563Z,25.32
2024-03-08T11:21:30.575Z,25.33
2024-03-08T11:22:30.558Z,25.35
2024-03-08T11:23:30.602Z,25.33
2024-03-08T11:24:30.549Z,25.35
2024-03-08T11:25:30.561Z,25.33
2024-03-08T11:26:30.480Z,25.35
2024-03-08T11:27:30.468Z,25.33
2024-03-08T11:28:30.483Z,25.35
2024-03-08T11:29:30.475Z,25.35
2024-03-08T11:30:30.450Z,25.33
2024-03-08T11:31:30.458Z,25.35
2024-03-08T11:32:30.445Z,25.36
2024-03-08T11:33:30.416Z,25.33
2024-03-08T11:34:30.411Z,25.33
2024-03-08T11:35:30.385Z,25.36
2024-03-08T11:36:30.386Z,25.36
2024-03-08T11:37:30.383Z,25.33
2024-03-08T11:38:30.344Z,25.36
2024-03-08T11:39:30.323Z,25.33
2024-03-08T11:40:30.356Z,25.38
2024-03-08T11:41:30.324Z,25.39
2024-03-08T11:42:30.345Z,25.38
2024-03-08T11:43:30.399Z,25.42
2024-03-08T11:44:30.370Z,25.42
2024-03-08T11:45:30.392Z,25.43
2024-03-08T11:46:30.428Z,25.42
2024-03-08T11:47:30.932Z,25.42
2024-03-08T11:48:30.504Z,25.45
2024-03-08T11:49:30.476Z,25.39
2024-03-08T11:50:30.449Z,25.42
2024-03-08T11:51:30.488Z,25.42
2024-03-08T11:52:30.531Z,25.45
2024-03-08T11:53:30.553Z,25.45
2024-03-08T11:54:30.554Z,25.45
2024-03-08T11:55:30.613Z,25.46
2024-03-08T11:56:30.558Z,25.45
2024-03-08T11:57:30.573Z,25.46
2024-03-08T11:58:30.634Z,25.46
2024-03-08T11:59:30.603Z,25.42
2024-03-08T12:00:30.531Z,25.43
2024-03-08T12:01:30.662Z,25.42
2024-03-08T12:02:30.545Z,25.43
2024-03-08T12:03:30.511Z,25.46
2024-03-08T12:04:30.545Z,25.48
2024-03-08T12:05:30.502Z,25.48
2024-03-08T12:06:30.495Z,25.49
2024-03-08T12:07:30.503Z,25.49
2024-03-08T12:08:30.470Z,25.49
2024-03-08T12:09:30.449Z,25.49
2024-03-08T12:10:30.599Z,25.50
2024-03-08T12:11:33.511Z,25.49
2024-03-08T12:12:30.420Z,25.50
2024-03-08T12:13:30.491Z,25.50
2024-03-08T12:14:30.399Z,25.46
2024-03-08T12:15:30.392Z,25.46
2024-03-08T12:16:30.444Z,25.50
2024-03-08T12:17:30.410Z,25.50
2024-03-08T12:18:30.394Z,25.52
2024-03-08T12:19:30.393Z,25.54
2024-03-08T12:20:30.342Z,25.52
2024-03-08T12:21:30.353Z,25.54
2024-03-08T12:22:30.362Z,25.58
2024-03-08T12:23:30.326Z,25.60
2024-03-08T12:24:30.309Z,25.60
2024-03-08T12:25:30.323Z,25.62
2024-03-08T12:26:30.235Z,25.62
2024-03-08T12:27:30.242Z,25.65
2024-03-08T12:28:30.270Z,25.66
2024-03-08T12:29:30.242Z,25.66
2024-03-08T12:30:30.198Z,25.69
2024-03-08T12:31:30.264Z,25.68
2024-03-08T12:32:30.196Z,25.72
2024-03-08T12:33:30.158Z,25.69
2024-03-08T12:34:30.135Z,25.70
2024-03-08T12:35:30.127Z,25.70
2024-03-08T12:36:30.100Z,25.66
2024-03-08T12:37:30.136Z,25.68
2024-03-08T12:38:30.079Z,25.68
2024-03-08T12:39:30.060Z,25.66
2024-03-08T12:40:30.180Z,25.63
2024-03-08T12:41:30.053Z,25.63
2024-03-08T12:42:30.045Z,25.63
2024-03-08T12:43:30.113Z,25.62
2024-03-08T12:44:30.315Z,25.63
2024-03-08T12:45:30.009Z,25.62
2024-03-08T12:46:30.038Z,25.63
2024-03-08T12:47:30.015Z,25.62
2024-03-08T12:48:30.006Z,25.62
2024-03-08T12:49:29.992Z,25.63
2024-03-08T12:50:29.947Z,25.60
2024-03-08T12:51:29.937Z,25.60
2024-03-08T12:52:29.973Z,25.62
2024-03-08T12:53:30.014Z,25.60
2024-03-08T12:54:29.931Z,25.60